createdAt,value
2018-11-05T00:02:25.751Z,27.40
2018-11-05T00:04:54.052Z,25.67
2018-11-05T00:07:22.327Z,26.67
2018-11-05T00:09:50.888Z,27.77
2018-11-05T00:12:19.200Z,26.43
2018-11-05T00:14:47.462Z,28.07
2018-11-05T00:17:15.825Z,28.13
2018-11-05T00:19:44.122Z,26.60
2018-11-05T00:22:12.417Z,26.60
2018-11-05T00:24:40.707Z,27.70
2018-11-05T00:27:09.026Z,27.43
2018-11-05T00:29:37.299Z,28.17
2018-11-05T00:32:05.621Z,29.10
2018-11-05T00:34:33.904Z,27.83
2018-11-05T00:37:02.200Z,28.67
2018-11-05T00:39:30.464Z,28.23
2018-11-05T00:41:58.760Z,28.17
2018-11-05T00:44:27.033Z,28.30
2018-11-05T00:46:55.397Z,26.63
2018-11-05T00:49:23.691Z,28.57
2018-11-05T00:51:52.258Z,28.13
2018-11-05T00:54:20.522Z,26.83
2018-11-05T00:56:48.823Z,27.23
2018-11-05T00:59:17.102Z,28.23
2018-11-05T01:01:45.368Z,27.60
2018-11-05T01:04:13.989Z,25.40
2018-11-05T01:06:42.279Z,27.37
2018-11-05T01:09:10.582Z,28.43
2018-11-05T01:11:39.186Z,28.47
2018-11-05T01:14:08.056Z,27.07
2018-11-05T01:16:37.049Z,26.67
2018-11-05T01:19:05.816Z,28.40
2018-11-05T01:21:34.320Z,27.17
2018-11-05T01:24:02.837Z,27.80
2018-11-05T01:26:31.169Z,28.00
2018-11-05T01:28:59.450Z,28.73
2018-11-05T01:31:27.735Z,27.33
2018-11-05T01:33:56.256Z,32.10
2018-11-05T01:36:24.601Z,31.93
2018-11-05T01:38:52.875Z,27.83
2018-11-05T01:41:21.223Z,27.50
2018-11-05T01:43:49.564Z,28.37
2018-11-05T01:46:17.842Z,25.77
2018-11-05T01:48:46.157Z,27.70
2018-11-05T01:51:14.580Z,29.87
2018-11-05T01:53:42.839Z,32.97
2018-11-05T01:56:11.164Z,28.27
2018-11-05T01:58:39.449Z,28.03
2018-11-05T02:01:07.727Z,28.60
2018-11-05T02:03:36.039Z,27.90
2018-11-05T02:06:04.354Z,28.67
2018-11-05T02:08:32.627Z,29.47
2018-11-05T02:11:00.947Z,29.43
2018-11-05T02:13:29.313Z,28.07
2018-11-05T02:15:57.512Z,27.80
2018-11-05T02:18:25.774Z,26.93
2018-11-05T02:20:54.059Z,26.77
2018-11-05T02:23:22.398Z,25.67
2018-11-05T02:25:50.699Z,27.53
2018-11-05T02:28:19.128Z,25.70
2018-11-05T02:30:47.388Z,26.80
2018-11-05T02:33:15.750Z,27.57
2018-11-05T02:35:44.021Z,28.10
2018-11-05T02:38:12.294Z,26.50
2018-11-05T02:40:40.596Z,26.47
2018-11-05T02:43:08.864Z,26.13
2018-11-05T02:45:37.201Z,25.57
2018-11-05T02:48:05.648Z,24.67
2018-11-05T02:50:33.925Z,25.03
2018-11-05T02:53:02.196Z,23.90
2018-11-05T02:55:30.489Z,25.53
2018-11-05T02:57:58.748Z,23.37
2018-11-05T03:00:27.023Z,24.63
2018-11-05T03:02:55.351Z,22.93
2018-11-05T03:05:23.708Z,24.87
2018-11-05T03:07:51.972Z,24.40
2018-11-05T03:10:20.396Z,22.67
2018-11-05T03:12:49.008Z,22.27
2018-11-05T03:15:18.265Z,23.90
2018-11-05T03:17:46.558Z,24.67
2018-11-05T03:20:15.811Z,24.43
2018-11-05T03:22:44.546Z,24.33
2018-11-05T03:25:12.843Z,22.73
2018-11-05T03:27:41.495Z,24.67
2018-11-05T03:30:15.486Z,24.17
2018-11-05T03:32:43.800Z,24.40
2018-11-05T03:35:12.886Z,23.97
2018-11-05T03:37:42.126Z,22.93
2018-11-05T03:40:11.204Z,25.10
2018-11-05T03:42:40.069Z,25.20
2018-11-05T03:45:09.519Z,23.87
2018-11-05T03:47:37.839Z,25.00
2018-11-05T03:50:09.217Z,24.80
2018-11-05T03:52:37.477Z,25.23
2018-11-05T03:55:06.238Z,25.57
2018-11-05T03:57:34.530Z,25.47
2018-11-05T04:00:02.814Z,25.37
2018-11-05T04:02:31.084Z,25.87
2018-11-05T04:04:59.379Z,25.40
2018-11-05T04:07:27.754Z,25.70
2018-11-05T04:09:56.021Z,25.27
2018-11-05T04:12:24.386Z,26.27
2018-11-05T04:14:52.797Z,25.53
2018-11-05T04:17:21.148Z,27.03
2018-11-05T04:19:49.432Z,26.10
2018-11-05T04:22:17.932Z,25.27
2018-11-05T04:24:46.264Z,25.93
2018-11-05T04:27:14.554Z,26.70
2018-11-05T04:29:42.818Z,27.83
2018-11-05T04:32:11.078Z,27.17
2018-11-05T04:34:39.361Z,27.50
2018-11-05T04:37:07.638Z,28.00
2018-11-05T04:39:35.897Z,27.40
2018-11-05T04:42:04.261Z,28.43
2018-11-05T04:44:32.512Z,28.13
2018-11-05T04:47:00.787Z,29.33
2018-11-05T04:49:29.135Z,27.20
2018-11-05T04:51:57.396Z,29.50
2018-11-05T04:54:25.639Z,30.47
2018-11-05T04:56:53.942Z,29.40
2018-11-05T04:59:22.440Z,30.23
2018-11-05T05:01:50.762Z,30.87
2018-11-05T05:04:19.305Z,29.30
2018-11-05T05:06:47.590Z,30.37
2018-11-05T05:09:15.874Z,29.37
2018-11-05T05:11:44.155Z,31.33
2018-11-05T05:14:12.420Z,30.33
2018-11-05T05:16:40.780Z,31.77
2018-11-05T05:19:09.073Z,29.57
2018-11-05T05:21:37.327Z,29.43
2018-11-05T05:24:05.838Z,27.93
2018-11-05T05:26:34.151Z,29.80
2018-11-05T05:29:02.428Z,30.33
2018-11-05T05:31:30.705Z,27.40
2018-11-05T05:33:59.229Z,30.13
2018-11-05T05:36:27.537Z,30.20
2018-11-05T05:38:55.828Z,30.20
2018-11-05T05:41:24.449Z,30.20
2018-11-05T05:43:52.834Z,29.20
2018-11-05T05:46:21.303Z,30.00
2018-11-05T05:48:49.664Z,29.77
2018-11-05T05:51:18.029Z,30.40
2018-11-05T05:53:46.290Z,29.33
2018-11-05T05:56:14.584Z,30.03
2018-11-05T05:58:42.857Z,31.03
2018-11-05T06:01:11.123Z,28.83
2018-11-05T06:03:39.450Z,28.67
2018-11-05T06:06:08.105Z,29.57
2018-11-05T06:08:36.338Z,31.33
2018-11-05T06:11:04.762Z,30.80
2018-11-05T06:13:33.182Z,31.00
2018-11-05T06:16:01.753Z,29.70
2018-11-05T06:18:30.085Z,28.93
2018-11-05T06:20:58.417Z,31.13
2018-11-05T06:23:26.839Z,29.63
2018-11-05T06:25:55.146Z,28.53
2018-11-05T06:28:23.560Z,29.07
2018-11-05T06:30:51.812Z,31.20
2018-11-05T06:33:20.433Z,28.73
2018-11-05T06:35:48.714Z,28.10
2018-11-05T06:38:17.079Z,29.80
2018-11-05T06:40:45.713Z,29.73
2018-11-05T06:43:13.997Z,26.70
2018-11-05T06:45:42.375Z,29.40
2018-11-05T06:48:10.716Z,27.60
2018-11-05T06:50:39.090Z,30.17
2018-11-05T06:53:07.444Z,28.50
2018-11-05T06:55:35.788Z,28.60
2018-11-05T06:58:04.109Z,27.17
2018-11-05T07:00:32.786Z,27.77
2018-11-05T07:03:01.392Z,25.90
2018-11-05T07:05:29.721Z,25.97
2018-11-05T07:07:58.037Z,26.00
2018-11-05T07:10:26.681Z,25.17
2018-11-05T07:12:54.969Z,25.33
2018-11-05T07:15:23.728Z,25.03
2018-11-05T07:17:52.203Z,23.57
2018-11-05T07:20:21.508Z,23.60
2018-11-05T07:22:50.759Z,23.10
2018-11-05T07:25:19.180Z,22.40
2018-11-05T07:27:47.523Z,23.67
2018-11-05T07:30:18.103Z,22.57
2018-11-05T07:32:47.051Z,21.57
2018-11-05T07:35:15.725Z,22.77
2018-11-05T07:37:44.071Z,24.03
2018-11-05T07:40:17.167Z,21.10
2018-11-05T07:42:45.484Z,22.13
2018-11-05T07:45:16.371Z,23.23
2018-11-05T07:47:45.596Z,22.97
2018-11-05T07:50:14.844Z,21.97
2018-11-05T07:52:43.972Z,21.73
2018-11-05T07:55:13.501Z,22.50
2018-11-05T07:57:42.792Z,23.13
2018-11-05T08:00:17.789Z,23.70
2018-11-05T08:02:47.061Z,23.57
2018-11-05T08:05:16.241Z,23.50
2018-11-05T08:07:44.758Z,26.40
2018-11-05T08:10:13.034Z,25.63
2018-11-05T08:12:41.850Z,26.07
2018-11-05T08:15:16.287Z,26.83
2018-11-05T08:17:45.807Z,25.23
2018-11-05T08:20:14.131Z,27.20
2018-11-05T08:22:42.456Z,28.33
2018-11-05T08:25:11.541Z,27.53
2018-11-05T08:27:40.220Z,28.77
2018-11-05T08:30:14.791Z,28.17
2018-11-05T08:32:43.169Z,28.13
2018-11-05T08:35:12.328Z,29.43
2018-11-05T08:37:41.468Z,28.80
2018-11-05T08:40:12.889Z,29.70
2018-11-05T08:42:41.549Z,30.00
2018-11-05T08:45:10.397Z,28.00
2018-11-05T08:47:38.713Z,29.43
2018-11-05T08:50:08.970Z,29.77
2018-11-05T08:52:37.162Z,30.43
2018-11-05T08:55:06.730Z,28.83
2018-11-05T08:57:35.557Z,28.87
2018-11-05T09:00:03.920Z,29.17
2018-11-05T09:02:32.320Z,27.90
2018-11-05T09:05:00.709Z,29.77
2018-11-05T09:07:29.160Z,28.10
2018-11-05T09:09:57.554Z,29.70
2018-11-05T09:12:25.975Z,31.73
2018-11-05T09:14:54.246Z,29.23
2018-11-05T09:17:22.511Z,29.07
2018-11-05T09:19:50.840Z,28.73
2018-11-05T09:22:19.106Z,29.10
2018-11-05T09:24:47.372Z,28.47
2018-11-05T09:27:15.737Z,28.00
2018-11-05T09:29:44.004Z,29.20
2018-11-05T09:32:12.282Z,30.23
2018-11-05T09:34:40.596Z,30.23
2018-11-05T09:37:08.881Z,29.53
2018-11-05T09:39:37.156Z,30.30
2018-11-05T09:42:05.766Z,29.83
2018-11-05T09:44:34.041Z,29.33
2018-11-05T09:47:02.328Z,27.73
2018-11-05T09:49:30.735Z,28.73
2018-11-05T09:51:58.976Z,28.27
2018-11-05T09:54:27.264Z,29.57
2018-11-05T09:56:55.591Z,28.50
2018-11-05T09:59:23.928Z,28.10
2018-11-05T10:01:52.288Z,28.53
2018-11-05T10:04:20.764Z,28.90
2018-11-05T10:06:48.893Z,28.77
2018-11-05T10:09:17.152Z,28.60
2018-11-05T10:11:45.464Z,27.87
2018-11-05T10:14:13.739Z,28.07
2018-11-05T10:16:42.012Z,28.80
2018-11-05T10:19:10.324Z,27.90
2018-11-05T10:21:38.590Z,27.47
2018-11-05T10:24:06.882Z,28.10
2018-11-05T10:26:35.174Z,27.37
2018-11-05T10:29:03.539Z,28.17
2018-11-05T10:31:31.985Z,24.70
2018-11-05T10:34:00.288Z,28.40
2018-11-05T10:36:28.744Z,26.17
2018-11-05T10:38:57.018Z,27.27
2018-11-05T10:41:25.338Z,29.13
2018-11-05T10:43:53.720Z,25.77
2018-11-05T10:46:22.119Z,27.97
2018-11-05T10:48:50.314Z,27.97
2018-11-05T10:51:18.614Z,27.40
2018-11-05T10:53:46.878Z,27.27
2018-11-05T10:56:15.185Z,26.37
2018-11-05T10:58:43.443Z,26.73
2018-11-05T11:01:12.576Z,26.37
2018-11-05T11:03:40.901Z,26.73
2018-11-05T11:06:10.262Z,26.00
2018-11-05T11:08:38.626Z,27.83
2018-11-05T11:11:06.924Z,28.60
2018-11-05T11:13:35.334Z,28.07
2018-11-05T11:16:03.600Z,27.93
2018-11-05T11:18:31.997Z,27.67
2018-11-05T11:21:00.558Z,28.63
2018-11-05T11:23:29.001Z,27.17
2018-11-05T11:25:57.304Z,28.67
2018-11-05T11:28:25.633Z,27.03
2018-11-05T11:30:53.852Z,25.93
2018-11-05T11:33:22.170Z,26.93
2018-11-05T11:35:50.439Z,27.93
2018-11-05T11:38:18.715Z,27.93
2018-11-05T11:40:47.012Z,27.20
2018-11-05T11:43:15.276Z,28.00
2018-11-05T11:45:43.573Z,28.23
2018-11-05T11:48:11.883Z,26.27
2018-11-05T11:50:40.236Z,27.00
2018-11-05T11:53:08.680Z,27.50
2018-11-05T11:55:36.974Z,28.33
2018-11-05T11:58:05.655Z,26.80
2018-11-05T12:00:34.036Z,29.40
2018-11-05T12:03:02.422Z,27.50
2018-11-05T12:05:30.882Z,25.80
2018-11-05T12:07:59.156Z,26.73
2018-11-05T12:10:27.495Z,28.93
2018-11-05T12:12:55.819Z,28.37
2018-11-05T12:15:24.334Z,26.40
2018-11-05T12:17:53.543Z,26.10
2018-11-05T12:20:23.176Z,29.23
2018-11-05T12:22:52.018Z,27.17
2018-11-05T12:25:20.364Z,27.83
2018-11-05T12:27:48.609Z,28.40
2018-11-05T12:30:19.536Z,28.13
2018-11-05T12:32:48.605Z,28.27
2018-11-05T12:35:16.933Z,27.07
2018-11-05T12:37:46.412Z,29.00
2018-11-05T12:40:15.931Z,32.13
2018-11-05T12:42:45.394Z,27.97
2018-11-05T12:45:13.731Z,28.03
2018-11-05T12:47:42.055Z,27.23
2018-11-05T12:50:14.137Z,28.07
2018-11-05T12:52:43.120Z,26.33
2018-11-05T12:55:11.470Z,28.43
2018-11-05T12:57:39.824Z,28.17
2018-11-05T13:00:11.140Z,27.63
2018-11-05T13:02:39.447Z,27.70
2018-11-05T13:05:08.682Z,27.97
2018-11-05T13:07:37.203Z,26.40
2018-11-05T13:10:08.028Z,27.53
2018-11-05T13:12:36.616Z,26.53
2018-11-05T13:15:05.973Z,26.03
2018-11-05T13:17:34.690Z,28.17
2018-11-05T13:20:03.087Z,26.33
2018-11-05T13:22:31.395Z,26.20
2018-11-05T13:24:59.670Z,27.60
2018-11-05T13:27:28.000Z,26.50
2018-11-05T13:29:56.284Z,28.53
2018-11-05T13:32:24.571Z,26.73
2018-11-05T13:34:52.898Z,25.50
2018-11-05T13:37:21.446Z,26.83
2018-11-05T13:39:49.458Z,26.90
2018-11-05T13:42:17.765Z,25.20
2018-11-05T13:44:46.296Z,25.07
2018-11-05T13:47:14.903Z,24.30
2018-11-05T13:49:43.176Z,25.70
2018-11-05T13:52:11.421Z,26.60
2018-11-05T13:54:39.779Z,25.53
2018-11-05T13:57:07.955Z,25.80
2018-11-05T13:59:36.229Z,27.13
2018-11-05T14:02:04.517Z,26.47
2018-11-05T14:04:32.888Z,28.13
2018-11-05T14:07:01.141Z,26.70
2018-11-05T14:09:29.419Z,25.73
2018-11-05T14:11:57.735Z,26.63
2018-11-05T14:14:26.017Z,26.00
2018-11-05T14:16:54.293Z,54.57
2018-11-05T14:19:22.610Z,26.37
2018-11-05T14:21:50.869Z,37.27
2018-11-05T14:24:19.134Z,26.27
2018-11-05T14:26:47.416Z,25.67
2018-11-05T14:29:16.045Z,25.37
2018-11-05T14:31:43.968Z,25.20
2018-11-05T14:34:12.437Z,25.27
2018-11-05T14:36:40.774Z,25.23
2018-11-05T14:39:11.212Z,25.63
2018-11-05T14:41:39.526Z,28.23
2018-11-05T14:44:07.792Z,24.87
2018-11-05T14:46:36.075Z,26.77
2018-11-05T14:49:04.465Z,22.83
2018-11-05T14:51:32.776Z,26.50
2018-11-05T14:54:01.062Z,25.77
2018-11-05T14:56:29.372Z,25.90
2018-11-05T14:58:57.866Z,25.80
2018-11-05T15:01:26.340Z,25.40
2018-11-05T15:03:54.649Z,25.57
2018-11-05T15:06:22.941Z,25.60
2018-11-05T15:08:51.214Z,25.77
2018-11-05T15:11:19.526Z,25.80
2018-11-05T15:13:47.830Z,26.77
2018-11-05T15:16:16.120Z,25.13
2018-11-05T15:18:45.043Z,26.87
2018-11-05T15:21:13.047Z,24.93
2018-11-05T15:23:41.354Z,26.30
2018-11-05T15:26:09.793Z,25.47
2018-11-05T15:28:38.157Z,25.87
2018-11-05T15:31:06.862Z,26.50
2018-11-05T15:33:35.234Z,26.37
2018-11-05T15:36:03.669Z,26.83
2018-11-05T15:38:32.014Z,25.97
2018-11-05T15:41:00.504Z,27.37
2018-11-05T15:43:28.949Z,27.90
2018-11-05T15:45:57.602Z,27.00
2018-11-05T15:48:26.032Z,27.47
2018-11-05T15:50:54.520Z,27.80
2018-11-05T15:53:23.242Z,27.03
2018-11-05T15:55:51.227Z,27.47
2018-11-05T15:58:19.516Z,28.57
2018-11-05T16:00:47.896Z,29.03
2018-11-05T16:03:16.268Z,27.80
2018-11-05T16:05:44.583Z,26.97
2018-11-05T16:08:12.951Z,29.37
2018-11-05T16:10:41.339Z,29.23
2018-11-05T16:13:10.047Z,29.53
2018-11-05T16:15:38.385Z,28.87
2018-11-05T16:18:07.270Z,29.43
2018-11-05T16:20:35.613Z,30.23
2018-11-05T16:23:04.060Z,28.43
2018-11-05T16:25:32.402Z,32.90
2018-11-05T16:28:00.743Z,30.57
2018-11-05T16:30:35.738Z,31.73
2018-11-05T16:33:04.030Z,30.93
2018-11-05T16:35:32.499Z,31.47
2018-11-05T16:38:00.973Z,32.43
2018-11-05T16:40:29.336Z,31.87
2018-11-05T16:42:57.695Z,30.50
2018-11-05T16:45:26.026Z,31.53
2018-11-05T16:47:54.408Z,30.73
2018-11-05T16:50:25.546Z,32.03
2018-11-05T16:52:53.955Z,30.63
2018-11-05T16:55:22.398Z,31.10
2018-11-05T16:57:50.950Z,32.90
2018-11-05T17:00:19.284Z,33.67
2018-11-05T17:02:48.631Z,30.87
2018-11-05T17:05:16.814Z,30.73
2018-11-05T17:07:45.285Z,34.63
2018-11-05T17:10:14.566Z,34.97
2018-11-05T17:12:43.857Z,36.33
2018-11-05T17:15:13.558Z,33.63
2018-11-05T17:17:42.326Z,31.73
2018-11-05T17:20:13.718Z,32.37
2018-11-05T17:22:42.688Z,32.97
2018-11-05T17:25:11.728Z,34.50
2018-11-05T17:27:40.190Z,33.80
2018-11-05T17:30:12.185Z,34.80
2018-11-05T17:32:41.199Z,33.87
2018-11-05T17:35:09.490Z,32.47
2018-11-05T17:37:37.813Z,34.67
2018-11-05T17:40:08.180Z,32.33
2018-11-05T17:42:36.445Z,33.63
2018-11-05T17:45:05.806Z,34.23
2018-11-05T17:47:34.157Z,32.67
2018-11-05T17:50:02.479Z,33.47
2018-11-05T17:52:30.777Z,34.60
2018-11-05T17:54:59.317Z,33.47
2018-11-05T17:57:27.677Z,33.97
2018-11-05T17:59:56.216Z,34.43
2018-11-05T18:02:25.435Z,33.67
2018-11-05T18:04:55.346Z,34.53
2018-11-05T18:07:24.367Z,33.63
2018-11-05T18:09:53.589Z,32.50
2018-11-05T18:12:22.329Z,34.70
2018-11-05T18:14:51.085Z,37.17
2018-11-05T18:17:19.963Z,35.30
2018-11-05T18:19:48.784Z,35.60
2018-11-05T18:22:17.231Z,35.17
2018-11-05T18:24:45.926Z,35.47
2018-11-05T18:27:14.527Z,36.80
2018-11-05T18:29:43.192Z,34.63
2018-11-05T18:32:17.030Z,35.37
2018-11-05T18:34:45.687Z,35.90
2018-11-05T18:37:14.298Z,35.53
2018-11-05T18:39:42.936Z,35.03
2018-11-05T18:42:11.274Z,38.40
2018-11-05T18:44:39.815Z,35.50
2018-11-05T18:47:08.714Z,36.67
2018-11-05T18:49:37.530Z,36.53
2018-11-05T18:52:06.981Z,37.03
2018-11-05T18:54:35.471Z,39.33
2018-11-05T18:57:03.814Z,36.63
2018-11-05T18:59:32.084Z,37.13
2018-11-05T19:02:00.411Z,38.67
2018-11-05T19:04:28.721Z,37.57
2018-11-05T19:06:57.066Z,39.70
2018-11-05T19:09:25.965Z,38.43
2018-11-05T19:11:54.273Z,39.60
2018-11-05T19:14:22.626Z,41.13
2018-11-05T19:16:51.110Z,38.10
2018-11-05T19:19:19.500Z,35.13
2018-11-05T19:21:47.917Z,35.97
2018-11-05T19:24:16.570Z,44.43
2018-11-05T19:26:46.009Z,38.97
2018-11-05T19:29:14.448Z,39.83
2018-11-05T19:31:43.378Z,40.43
2018-11-05T19:34:12.160Z,38.77
2018-11-05T19:36:40.640Z,39.43
2018-11-05T19:39:11.050Z,39.30
2018-11-05T19:41:39.472Z,37.17
2018-11-05T19:44:07.840Z,36.40
2018-11-05T19:46:36.489Z,37.63
2018-11-05T19:49:04.990Z,38.17
2018-11-05T19:51:33.442Z,38.07
2018-11-05T19:54:02.979Z,37.87
2018-11-05T19:56:31.377Z,38.23
2018-11-05T19:58:59.696Z,34.80
2018-11-05T20:01:28.665Z,35.87
2018-11-05T20:03:56.994Z,36.47
2018-11-05T20:06:25.341Z,37.40
2018-11-05T20:08:54.611Z,41.03
2018-11-05T20:11:22.996Z,37.43
2018-11-05T20:13:52.924Z,45.53
2018-11-05T20:16:21.328Z,43.30
2018-11-05T20:18:50.121Z,36.07
2018-11-05T20:21:18.994Z,35.17
2018-11-05T20:23:47.731Z,39.17
2018-11-05T20:26:16.157Z,33.70
2018-11-05T20:28:44.622Z,34.77
2018-11-05T20:31:13.137Z,36.93
2018-11-05T20:33:42.129Z,38.97
2018-11-05T20:36:11.101Z,38.77
2018-11-05T20:38:40.127Z,41.27
2018-11-05T20:41:08.729Z,38.77
2018-11-05T20:43:37.686Z,41.37
2018-11-05T20:46:07.579Z,39.03
2018-11-05T20:48:36.335Z,41.23
2018-11-05T20:51:05.334Z,43.03
2018-11-05T20:53:34.330Z,41.23
2018-11-05T20:56:02.550Z,38.00
2018-11-05T20:58:30.912Z,40.23
2018-11-05T21:00:59.507Z,40.20
2018-11-05T21:03:27.821Z,41.13
2018-11-05T21:05:56.182Z,41.27
2018-11-05T21:08:24.595Z,43.20
2018-11-05T21:10:53.367Z,42.00
2018-11-05T21:13:22.133Z,41.17
2018-11-05T21:15:50.593Z,41.67
2018-11-05T21:18:21.715Z,42.23
2018-11-05T21:20:51.399Z,43.07
2018-11-05T21:23:19.688Z,42.03
2018-11-05T21:25:48.168Z,41.63
2018-11-05T21:28:16.523Z,40.97
2018-11-05T21:30:44.930Z,42.70
2018-11-05T21:33:13.434Z,40.83
2018-11-05T21:35:41.665Z,40.90
2018-11-05T21:38:10.219Z,40.33
2018-11-05T21:40:38.563Z,38.53
2018-11-05T21:43:06.911Z,40.97
2018-11-05T21:45:35.212Z,42.20
2018-11-05T21:48:03.497Z,40.33
2018-11-05T21:50:31.814Z,40.53
2018-11-05T21:53:00.213Z,38.43
2018-11-05T21:55:28.504Z,39.73
2018-11-05T21:57:56.939Z,39.60
2018-11-05T22:00:25.774Z,40.23
2018-11-05T22:02:59.336Z,37.87
2018-11-05T22:05:27.646Z,40.90
2018-11-05T22:07:56.177Z,39.27
2018-11-05T22:10:24.614Z,40.53
2018-11-05T22:12:53.089Z,41.77
2018-11-05T22:15:21.386Z,39.47
2018-11-05T22:17:49.808Z,38.97
2018-11-05T22:20:18.141Z,41.30
2018-11-05T22:22:46.591Z,40.93
2018-11-05T22:25:17.302Z,40.53
2018-11-05T22:27:46.251Z,38.97
2018-11-05T22:30:14.836Z,41.20
2018-11-05T22:32:43.324Z,41.27
2018-11-05T22:35:12.250Z,39.93
2018-11-05T22:37:40.542Z,40.90
2018-11-05T22:40:11.376Z,39.13
2018-11-05T22:42:39.699Z,39.27
2018-11-05T22:45:08.458Z,38.77
2018-11-05T22:47:36.900Z,39.13
2018-11-05T22:50:05.632Z,41.20
2018-11-05T22:52:33.911Z,40.20
2018-11-05T22:55:02.228Z,40.57
2018-11-05T22:57:30.519Z,38.00
2018-11-05T22:59:58.922Z,39.90
2018-11-05T23:02:27.184Z,41.13
2018-11-05T23:04:55.502Z,40.60
2018-11-05T23:07:23.877Z,38.77
2018-11-05T23:09:52.307Z,38.33
2018-11-05T23:12:20.604Z,38.43
2018-11-05T23:14:49.080Z,39.93
2018-11-05T23:17:17.427Z,38.37
2018-11-05T23:19:45.722Z,40.40
2018-11-05T23:22:14.107Z,39.63
2018-11-05T23:24:42.429Z,39.80
2018-11-05T23:27:10.722Z,40.20
2018-11-05T23:29:38.997Z,39.43
2018-11-05T23:32:07.301Z,47.07
2018-11-05T23:34:35.614Z,39.63
2018-11-05T23:37:03.923Z,41.20
2018-11-05T23:39:32.510Z,40.37
2018-11-05T23:42:00.836Z,39.47
2018-11-05T23:44:29.120Z,39.67
2018-11-05T23:46:57.533Z,37.90
2018-11-05T23:49:25.874Z,36.93
2018-11-05T23:51:54.324Z,38.87
2018-11-05T23:54:22.494Z,38.20
2018-11-05T23:56:50.870Z,39.13
2018-11-05T23:59:19.145Z,39.77
